createdAt,value
2022-11-20T00:00:12.846Z,25.20
2022-11-20T00:01:12.332Z,27.80
2022-11-20T00:01:45.568Z,25.10
2022-11-20T00:02:18.644Z,28.60
2022-11-20T00:02:52.162Z,28.20
2022-11-20T00:03:25.433Z,27.40
2022-11-20T00:03:59.182Z,27.10
2022-11-20T00:04:32.568Z,26.80
2022-11-20T00:05:05.727Z,25.50
2022-11-20T00:05:38.746Z,27.00
2022-11-20T00:06:13.290Z,26.00
2022-11-20T00:06:48.071Z,24.60
2022-11-20T00:07:21.343Z,24.70
2022-11-20T00:07:54.442Z,24.90
2022-11-20T00:08:27.481Z,24.20
2022-11-20T00:09:01.475Z,24.20
2022-11-20T00:09:35.315Z,25.90
2022-11-20T00:10:08.781Z,25.50
2022-11-20T00:10:42.035Z,26.50
2022-11-20T00:11:16.807Z,25.80
2022-11-20T00:11:49.988Z,26.80
2022-11-20T00:12:23.088Z,28.20
2022-11-20T00:12:56.309Z,27.80
2022-11-20T00:13:29.424Z,28.60
2022-11-20T00:14:03.045Z,29.00
2022-11-20T00:14:36.283Z,29.50
2022-11-20T00:15:09.964Z,32.40
2022-11-20T00:15:42.981Z,31.30
2022-11-20T00:16:17.718Z,31.20
2022-11-20T00:16:51.217Z,31.80
2022-11-20T00:17:24.415Z,31.30
2022-11-20T00:17:57.711Z,30.40
2022-11-20T00:18:31.422Z,30.50
2022-11-20T00:19:04.674Z,32.50
2022-11-20T00:19:37.781Z,29.80
2022-11-20T00:20:11.339Z,30.30
2022-11-20T00:20:44.519Z,31.00
2022-11-20T00:21:19.201Z,27.80
2022-11-20T00:21:56.583Z,28.50
2022-11-20T00:22:29.696Z,28.50
2022-11-20T00:23:02.789Z,28.70
2022-11-20T00:23:35.824Z,29.50
2022-11-20T00:24:09.409Z,28.80
2022-11-20T00:24:43.280Z,28.00
2022-11-20T00:25:16.459Z,28.70
2022-11-20T00:25:49.631Z,29.20
2022-11-20T00:26:24.244Z,27.20
2022-11-20T00:26:57.477Z,28.40
2022-11-20T00:27:30.617Z,28.00
2022-11-20T00:28:03.689Z,29.50
2022-11-20T00:28:36.996Z,27.80
2022-11-20T00:29:10.948Z,28.60
2022-11-20T00:29:44.105Z,28.10
2022-11-20T00:30:17.312Z,28.00
2022-11-20T00:30:50.400Z,26.80
2022-11-20T00:31:23.794Z,27.30
2022-11-20T00:31:57.723Z,26.20
2022-11-20T00:32:32.981Z,26.50
2022-11-20T00:33:06.073Z,25.90
2022-11-20T00:33:39.208Z,25.70
2022-11-20T00:34:12.331Z,24.10
2022-11-20T00:34:45.563Z,24.50
2022-11-20T00:35:18.687Z,24.10
2022-11-20T00:35:54.687Z,24.90
2022-11-20T00:36:30.161Z,25.10
2022-11-20T00:37:07.375Z,23.70
2022-11-20T00:37:41.364Z,24.00
2022-11-20T00:38:15.722Z,25.50
2022-11-20T00:38:53.486Z,24.00
2022-11-20T00:39:27.803Z,24.20
2022-11-20T00:40:01.664Z,24.90
2022-11-20T00:40:35.467Z,25.00
2022-11-20T00:41:14.654Z,24.00
2022-11-20T00:41:49.312Z,24.00
2022-11-20T00:42:25.832Z,25.80
2022-11-20T00:43:00.197Z,24.70
2022-11-20T00:43:33.629Z,24.20
2022-11-20T00:44:06.839Z,24.70
2022-11-20T00:44:40.015Z,23.10
2022-11-20T00:45:13.069Z,23.20
2022-11-20T00:45:46.050Z,23.70
2022-11-20T00:46:20.476Z,23.60
2022-11-20T00:46:53.447Z,24.10
2022-11-20T00:47:26.457Z,23.30
2022-11-20T00:47:59.476Z,23.10
2022-11-20T00:48:32.770Z,21.70
2022-11-20T00:49:05.808Z,22.80
2022-11-20T00:49:39.069Z,23.10
2022-11-20T00:50:12.074Z,21.50
2022-11-20T00:50:45.088Z,20.40
2022-11-20T00:51:22.641Z,21.20
2022-11-20T00:51:55.819Z,22.30
2022-11-20T00:52:28.935Z,20.10
2022-11-20T00:53:01.969Z,21.80
2022-11-20T00:53:35.106Z,21.60
2022-11-20T00:54:08.289Z,20.90
2022-11-20T00:54:41.467Z,21.60
2022-11-20T00:55:14.617Z,21.10
2022-11-20T00:55:57.856Z,22.80
2022-11-20T00:56:30.864Z,22.10
2022-11-20T00:57:03.902Z,21.80
2022-11-20T00:57:36.902Z,22.10
2022-11-20T00:58:14.179Z,20.70
2022-11-20T00:58:48.353Z,21.50
2022-11-20T00:59:21.742Z,21.10
2022-11-20T01:00:07.241Z,23.20
2022-11-20T01:00:40.622Z,23.10
2022-11-20T01:01:14.068Z,22.50
2022-11-20T01:01:47.489Z,20.60
2022-11-20T01:02:20.667Z,20.50
2022-11-20T01:02:53.873Z,21.20
2022-11-20T01:03:27.337Z,19.00
2022-11-20T01:04:01.796Z,19.20
2022-11-20T01:04:34.957Z,19.90
2022-11-20T01:05:08.154Z,18.90
2022-11-20T01:05:41.167Z,19.10
2022-11-20T01:06:15.741Z,18.00
2022-11-20T01:06:48.759Z,17.60
2022-11-20T01:07:21.960Z,18.50
2022-11-20T01:07:55.041Z,18.90
2022-11-20T01:08:30.468Z,18.70
2022-11-20T01:09:07.883Z,18.30
2022-11-20T01:09:40.946Z,19.30
2022-11-20T01:10:13.990Z,19.40
2022-11-20T01:10:47.209Z,17.80
2022-11-20T01:11:21.729Z,19.70
2022-11-20T01:11:54.815Z,18.50
2022-11-20T01:12:27.920Z,19.20
2022-11-20T01:13:25.379Z,20.40
2022-11-20T01:13:59.840Z,20.50
2022-11-20T01:14:32.893Z,21.20
2022-11-20T01:15:06.446Z,21.00
2022-11-20T01:15:39.584Z,21.40
2022-11-20T01:16:17.297Z,21.50
2022-11-20T01:16:52.273Z,20.60
2022-11-20T01:17:27.010Z,22.10
2022-11-20T01:18:00.095Z,19.90
2022-11-20T01:18:33.413Z,20.20
2022-11-20T01:19:07.815Z,20.10
2022-11-20T01:19:40.968Z,19.60
2022-11-20T01:20:14.378Z,19.60
2022-11-20T01:20:47.537Z,19.40
2022-11-20T01:21:22.282Z,19.40
2022-11-20T01:21:55.413Z,18.90
2022-11-20T01:22:28.505Z,19.20
2022-11-20T01:23:01.703Z,19.70
2022-11-20T01:23:38.726Z,20.30
2022-11-20T01:24:14.619Z,19.10
2022-11-20T01:24:47.844Z,18.40
2022-11-20T01:25:20.817Z,18.60
2022-11-20T01:25:53.927Z,17.80
2022-11-20T01:26:29.396Z,19.70
2022-11-20T01:27:02.478Z,18.90
2022-11-20T01:27:35.592Z,20.00
2022-11-20T01:28:08.857Z,20.10
2022-11-20T01:28:42.163Z,20.30
2022-11-20T01:29:17.939Z,19.40
2022-11-20T01:29:51.166Z,20.20
2022-11-20T01:30:24.235Z,18.90
2022-11-20T01:30:57.406Z,18.70
2022-11-20T01:31:31.823Z,19.40
2022-11-20T01:32:05.009Z,19.30
2022-11-20T01:32:38.105Z,18.70
2022-11-20T01:33:11.295Z,19.40
2022-11-20T01:33:45.012Z,19.60
2022-11-20T01:34:19.110Z,18.80
2022-11-20T01:34:52.264Z,18.90
2022-11-20T01:35:25.361Z,19.20
2022-11-20T01:36:04.579Z,18.80
2022-11-20T01:36:38.955Z,18.80
2022-11-20T01:37:12.046Z,18.10
2022-11-20T01:37:45.186Z,17.70
2022-11-20T01:38:18.658Z,17.30
2022-11-20T01:38:55.069Z,18.30
2022-11-20T01:39:28.282Z,18.60
2022-11-20T01:40:01.266Z,18.30
2022-11-20T01:40:34.328Z,18.10
2022-11-20T01:41:07.578Z,18.00
2022-11-20T01:41:59.620Z,19.20
2022-11-20T01:42:51.575Z,17.70
2022-11-20T01:43:26.276Z,17.70
2022-11-20T01:44:00.076Z,18.80
2022-11-20T01:44:46.861Z,18.80
2022-11-20T01:45:38.658Z,19.50
2022-11-20T01:46:18.080Z,19.30
2022-11-20T01:46:57.807Z,19.70
2022-11-20T01:47:39.690Z,19.90
2022-11-20T01:48:12.785Z,19.70
2022-11-20T01:48:55.084Z,20.00
2022-11-20T01:49:33.277Z,19.30
2022-11-20T01:50:06.581Z,19.60
2022-11-20T01:50:39.723Z,20.00
2022-11-20T01:51:25.105Z,17.70
2022-11-20T01:52:00.384Z,18.30
2022-11-20T01:52:45.868Z,17.20
2022-11-20T01:53:20.217Z,18.10
2022-11-20T01:53:55.300Z,18.10
2022-11-20T01:54:37.387Z,18.50
2022-11-20T01:55:14.292Z,18.60
2022-11-20T01:55:49.637Z,19.30
2022-11-20T01:56:22.923Z,18.60
2022-11-20T01:56:57.937Z,19.30
2022-11-20T01:57:33.013Z,19.70
2022-11-20T01:58:06.368Z,19.50
2022-11-20T01:58:43.516Z,19.20
2022-11-20T01:59:18.908Z,18.80
2022-11-20T01:59:56.051Z,19.00
2022-11-20T02:00:29.427Z,19.80
2022-11-20T02:01:02.734Z,18.10
2022-11-20T02:01:36.038Z,20.50
2022-11-20T02:02:09.123Z,21.60
2022-11-20T02:02:43.881Z,21.10
2022-11-20T02:03:18.130Z,20.60
2022-11-20T02:03:51.574Z,21.20
2022-11-20T02:04:26.112Z,20.50
2022-11-20T02:05:02.427Z,20.30
2022-11-20T02:05:43.096Z,20.00
2022-11-20T02:06:16.053Z,20.00
2022-11-20T02:06:50.893Z,20.10
2022-11-20T02:07:25.024Z,19.60
2022-11-20T02:07:59.232Z,19.90
2022-11-20T02:08:32.791Z,20.20
2022-11-20T02:09:05.816Z,19.70
2022-11-20T02:09:38.845Z,21.30
2022-11-20T02:10:12.483Z,20.80
2022-11-20T02:10:45.643Z,19.70
2022-11-20T02:11:18.747Z,19.50
2022-11-20T02:11:52.229Z,20.30
2022-11-20T02:12:43.935Z,21.10
2022-11-20T02:13:35.826Z,21.30
2022-11-20T02:14:09.205Z,20.90
2022-11-20T02:14:42.681Z,19.70
2022-11-20T02:15:15.749Z,20.20
2022-11-20T02:15:49.068Z,20.00
2022-11-20T02:16:22.020Z,21.10
2022-11-20T02:16:56.203Z,20.50
2022-11-20T02:17:53.285Z,19.90
2022-11-20T02:18:26.779Z,19.00
2022-11-20T02:19:02.928Z,20.70
2022-11-20T02:19:36.220Z,20.60
2022-11-20T02:20:09.968Z,20.50
2022-11-20T02:20:46.614Z,20.20
2022-11-20T02:21:28.681Z,19.70
2022-11-20T02:22:01.690Z,18.80
2022-11-20T02:22:38.542Z,18.80
2022-11-20T02:23:20.961Z,18.40
2022-11-20T02:24:01.010Z,19.40
2022-11-20T02:24:33.934Z,18.60
2022-11-20T02:25:08.216Z,19.20
2022-11-20T02:25:42.418Z,18.90
2022-11-20T02:26:17.424Z,18.90
2022-11-20T02:26:55.638Z,18.50
2022-11-20T02:27:28.644Z,20.50
2022-11-20T02:28:01.972Z,18.50
2022-11-20T02:28:35.008Z,19.20
2022-11-20T02:29:08.032Z,20.40
2022-11-20T02:29:41.186Z,18.30
2022-11-20T02:30:14.327Z,19.80
2022-11-20T02:30:47.328Z,20.60
2022-11-20T02:31:20.412Z,20.30
2022-11-20T02:31:55.200Z,20.30
2022-11-20T02:32:28.411Z,21.10
2022-11-20T02:33:01.622Z,20.80
2022-11-20T02:33:34.703Z,21.40
2022-11-20T02:34:08.216Z,20.40
2022-11-20T02:34:41.297Z,21.90
2022-11-20T02:35:20.480Z,22.10
2022-11-20T02:35:53.496Z,20.80
2022-11-20T02:36:28.737Z,22.30
2022-11-20T02:37:01.939Z,22.30
2022-11-20T02:37:36.566Z,21.60
2022-11-20T02:38:09.751Z,20.70
2022-11-20T02:38:43.865Z,20.90
2022-11-20T02:39:18.271Z,20.20
2022-11-20T02:39:52.491Z,19.50
2022-11-20T02:40:25.953Z,20.20
2022-11-20T02:41:06.419Z,18.80
2022-11-20T02:41:39.779Z,19.20
2022-11-20T02:42:13.005Z,20.40
2022-11-20T02:42:46.426Z,20.20
2022-11-20T02:43:19.857Z,20.00
2022-11-20T02:43:52.951Z,20.00
2022-11-20T02:44:26.391Z,20.90
2022-11-20T02:44:59.557Z,20.70
2022-11-20T02:45:33.130Z,20.50
2022-11-20T02:46:10.588Z,19.60
2022-11-20T02:46:53.252Z,20.20
2022-11-20T02:47:26.361Z,20.90
2022-11-20T02:47:59.599Z,20.60
2022-11-20T02:48:34.115Z,20.40
2022-11-20T02:49:07.532Z,20.90
2022-11-20T02:49:40.562Z,22.00
2022-11-20T02:50:13.871Z,20.90
2022-11-20T02:50:47.211Z,20.90
2022-11-20T02:51:20.443Z,21.70
2022-11-20T02:51:53.645Z,20.80
2022-11-20T02:52:27.179Z,21.60
2022-11-20T02:53:00.273Z,21.40
2022-11-20T02:53:33.307Z,22.30
2022-11-20T02:54:06.427Z,22.40
2022-11-20T02:54:39.674Z,21.10
2022-11-20T02:55:13.183Z,21.40
2022-11-20T02:55:46.613Z,21.00
2022-11-20T02:56:19.828Z,20.90
2022-11-20T02:56:53.219Z,21.60
2022-11-20T02:57:26.249Z,19.90
2022-11-20T02:57:59.470Z,21.40
2022-11-20T02:58:32.617Z,20.60
2022-11-20T02:59:05.854Z,20.50
2022-11-20T02:59:39.037Z,21.90
2022-11-20T03:00:12.496Z,21.10
2022-11-20T03:00:45.677Z,20.40
2022-11-20T03:01:18.803Z,19.80
2022-11-20T03:01:51.938Z,20.70
2022-11-20T03:02:25.155Z,21.80
2022-11-20T03:02:58.330Z,20.20
2022-11-20T03:03:31.362Z,20.50
2022-11-20T03:04:04.600Z,19.90
2022-11-20T03:04:37.751Z,19.70
2022-11-20T03:05:10.867Z,20.60
2022-11-20T03:05:43.927Z,20.40
2022-11-20T03:06:18.051Z,19.20
2022-11-20T03:06:51.132Z,19.20
2022-11-20T03:07:24.402Z,20.10
2022-11-20T03:07:57.545Z,19.10
2022-11-20T03:08:30.635Z,19.50
2022-11-20T03:09:03.636Z,19.10
2022-11-20T03:09:36.847Z,18.80
2022-11-20T03:10:10.098Z,18.20
2022-11-20T03:10:43.253Z,19.20
2022-11-20T03:11:16.298Z,19.30
2022-11-20T03:11:49.380Z,19.40
2022-11-20T03:12:22.631Z,18.40
2022-11-20T03:12:56.651Z,18.30
2022-11-20T03:13:29.739Z,19.80
2022-11-20T03:14:03.635Z,19.70
2022-11-20T03:14:36.766Z,18.70
2022-11-20T03:15:10.314Z,18.90
2022-11-20T03:15:43.375Z,21.40
2022-11-20T03:16:17.567Z,19.40
2022-11-20T03:16:50.547Z,19.80
2022-11-20T03:17:23.673Z,20.00
2022-11-20T03:17:57.439Z,20.40
2022-11-20T03:18:30.604Z,19.30
2022-11-20T03:19:03.631Z,19.60
2022-11-20T03:19:36.744Z,18.60
2022-11-20T03:20:10.317Z,19.30
2022-11-20T03:20:43.348Z,18.80
2022-11-20T03:21:17.010Z,17.80
2022-11-20T03:21:50.122Z,17.60
2022-11-20T03:22:23.356Z,17.90
2022-11-20T03:22:56.565Z,17.10
2022-11-20T03:23:30.558Z,18.80
2022-11-20T03:24:04.128Z,16.90
2022-11-20T03:24:37.362Z,17.30
2022-11-20T03:25:10.600Z,17.90
2022-11-20T03:25:43.902Z,17.70
2022-11-20T03:26:17.137Z,17.90
2022-11-20T03:26:50.217Z,18.70
2022-11-20T03:27:23.438Z,18.50
2022-11-20T03:27:56.610Z,18.60
2022-11-20T03:28:29.711Z,18.20
2022-11-20T03:29:04.013Z,17.30
2022-11-20T03:29:37.084Z,18.50
2022-11-20T03:30:10.553Z,19.10
2022-11-20T03:30:43.730Z,19.30
2022-11-20T03:31:17.453Z,18.60
2022-11-20T03:31:50.487Z,18.40
2022-11-20T03:32:23.601Z,19.70
2022-11-20T03:32:56.778Z,18.80
2022-11-20T03:33:29.758Z,19.40
2022-11-20T03:34:03.729Z,20.40
2022-11-20T03:34:36.791Z,18.10
2022-11-20T03:35:10.109Z,18.60
2022-11-20T03:35:43.151Z,19.00
2022-11-20T03:36:17.493Z,19.20
2022-11-20T03:36:50.642Z,17.80
2022-11-20T03:37:23.701Z,18.80
2022-11-20T03:37:56.904Z,17.20
2022-11-20T03:38:30.693Z,17.20
2022-11-20T03:39:03.827Z,17.60
2022-11-20T03:39:36.983Z,17.20
2022-11-20T03:40:10.627Z,17.90
2022-11-20T03:40:43.703Z,16.90
2022-11-20T03:41:21.376Z,17.30
2022-11-20T03:41:54.729Z,17.60
2022-11-20T03:42:46.343Z,18.70
2022-11-20T03:43:19.567Z,18.60
2022-11-20T03:43:53.809Z,18.60
2022-11-20T03:44:26.979Z,17.80
2022-11-20T03:45:00.022Z,20.00
2022-11-20T03:45:33.140Z,18.80
2022-11-20T03:46:06.625Z,18.90
2022-11-20T03:46:39.775Z,18.60
2022-11-20T03:47:12.944Z,19.50
2022-11-20T03:47:46.083Z,18.50
2022-11-20T03:48:19.251Z,20.20
2022-11-20T03:48:52.765Z,18.30
2022-11-20T03:49:25.843Z,18.20
2022-11-20T03:49:58.827Z,18.10
2022-11-20T03:50:31.829Z,18.40
2022-11-20T03:51:08.687Z,16.60
2022-11-20T03:51:41.788Z,17.70
2022-11-20T03:52:14.972Z,16.70
2022-11-20T03:52:48.136Z,15.70
2022-11-20T03:53:21.709Z,16.90
2022-11-20T03:53:55.700Z,17.10
2022-11-20T03:54:28.931Z,17.20
2022-11-20T03:55:02.325Z,18.00
2022-11-20T03:55:35.331Z,18.10
2022-11-20T03:56:09.209Z,16.50
2022-11-20T03:56:42.298Z,17.00
2022-11-20T03:57:15.375Z,17.00
2022-11-20T03:57:48.443Z,18.20
2022-11-20T03:58:21.520Z,17.60
2022-11-20T03:58:55.216Z,17.70
2022-11-20T03:59:28.373Z,17.50
2022-11-20T04:00:01.530Z,18.00
2022-11-20T04:00:34.746Z,17.20
2022-11-20T04:01:07.847Z,17.30
2022-11-20T04:01:43.151Z,17.50
2022-11-20T04:02:20.014Z,17.50
2022-11-20T04:02:53.175Z,19.40
2022-11-20T04:03:27.061Z,18.70
2022-11-20T04:04:00.201Z,17.50
2022-11-20T04:04:33.443Z,19.50
2022-11-20T04:05:06.745Z,17.90
2022-11-20T04:05:39.927Z,17.10
2022-11-20T04:06:14.597Z,17.30
2022-11-20T04:06:48.109Z,17.30
2022-11-20T04:07:21.188Z,15.80
2022-11-20T04:07:54.929Z,16.10
2022-11-20T04:08:29.384Z,16.30
2022-11-20T04:09:02.485Z,16.30
2022-11-20T04:09:35.422Z,15.80
2022-11-20T04:10:08.649Z,16.00
2022-11-20T04:10:41.645Z,16.50
2022-11-20T04:11:17.837Z,16.60
2022-11-20T04:11:51.009Z,17.10
2022-11-20T04:12:24.226Z,17.80
2022-11-20T04:12:57.466Z,18.30
2022-11-20T04:13:30.578Z,18.20
2022-11-20T04:14:05.004Z,18.70
2022-11-20T04:14:38.184Z,17.50
2022-11-20T04:15:11.318Z,16.10
2022-11-20T04:15:44.312Z,17.30
2022-11-20T04:16:17.803Z,17.50
2022-11-20T04:16:50.805Z,18.20
2022-11-20T04:17:23.758Z,17.10
2022-11-20T04:17:57.100Z,17.20
2022-11-20T04:18:30.288Z,16.40
2022-11-20T04:19:05.315Z,17.70
2022-11-20T04:19:38.275Z,17.00
2022-11-20T04:20:11.510Z,17.70
2022-11-20T04:20:44.570Z,16.50
2022-11-20T04:21:17.704Z,17.00
2022-11-20T04:21:50.793Z,18.10
2022-11-20T04:22:24.024Z,18.10
2022-11-20T04:22:57.030Z,16.50
2022-11-20T04:23:30.137Z,16.20
2022-11-20T04:24:03.548Z,15.70
2022-11-20T04:24:36.531Z,15.50
2022-11-20T04:25:09.792Z,16.50
2022-11-20T04:25:42.762Z,16.90
2022-11-20T04:26:15.764Z,15.90
2022-11-20T04:26:48.710Z,16.20
2022-11-20T04:27:21.866Z,17.20
2022-11-20T04:27:54.728Z,16.60
2022-11-20T04:28:27.752Z,16.30
2022-11-20T04:29:02.959Z,17.20
2022-11-20T04:29:36.031Z,16.20
2022-11-20T04:30:09.426Z,17.60
2022-11-20T04:30:42.392Z,16.30
2022-11-20T04:31:16.619Z,18.10
2022-11-20T04:31:49.743Z,17.10
2022-11-20T04:32:22.968Z,17.20
2022-11-20T04:32:56.030Z,17.80
2022-11-20T04:33:33.738Z,17.10
2022-11-20T04:34:08.241Z,18.00
2022-11-20T04:34:41.362Z,17.70
2022-11-20T04:35:14.399Z,18.10
2022-11-20T04:35:48.745Z,17.40
2022-11-20T04:36:22.965Z,19.40
2022-11-20T04:36:56.064Z,17.70
2022-11-20T04:37:29.092Z,17.30
2022-11-20T04:38:02.200Z,17.30
2022-11-20T04:38:35.461Z,17.60
2022-11-20T04:39:08.697Z,16.60
2022-11-20T04:39:41.986Z,16.40
2022-11-20T04:40:15.047Z,17.60
2022-11-20T04:40:48.122Z,16.10
2022-11-20T04:41:22.062Z,16.00
2022-11-20T04:42:15.060Z,16.80
2022-11-20T04:42:48.266Z,17.70
2022-11-20T04:43:21.372Z,16.90
2022-11-20T04:44:00.638Z,16.30
2022-11-20T04:44:34.014Z,17.40
2022-11-20T04:45:07.300Z,16.50
2022-11-20T04:45:40.313Z,17.90
2022-11-20T04:46:13.312Z,17.70
2022-11-20T04:46:46.463Z,17.70
2022-11-20T04:47:19.534Z,19.20
2022-11-20T04:47:52.825Z,16.70
2022-11-20T04:48:26.184Z,19.20
2022-11-20T04:49:00.234Z,18.70
2022-11-20T04:49:33.880Z,19.60
2022-11-20T04:50:07.188Z,18.60
2022-11-20T04:50:41.639Z,19.70
2022-11-20T04:51:15.014Z,17.40
2022-11-20T04:51:48.023Z,17.20
2022-11-20T04:52:21.306Z,17.60
2022-11-20T04:52:54.594Z,17.10
2022-11-20T04:53:27.830Z,17.60
2022-11-20T04:54:01.367Z,16.30
2022-11-20T04:54:34.510Z,16.90
2022-11-20T04:55:07.751Z,16.10
2022-11-20T04:55:40.854Z,15.90
2022-11-20T04:56:14.475Z,16.40
2022-11-20T04:56:50.900Z,16.70
2022-11-20T04:57:24.119Z,16.10
2022-11-20T04:57:57.193Z,16.60
2022-11-20T04:58:30.377Z,16.50
2022-11-20T04:59:03.704Z,16.60
2022-11-20T04:59:37.162Z,17.00
2022-11-20T05:00:10.671Z,16.90
2022-11-20T05:00:44.249Z,16.00
2022-11-20T05:01:19.956Z,18.30
2022-11-20T05:01:53.198Z,16.80
2022-11-20T05:02:26.730Z,16.80
2022-11-20T05:02:59.841Z,17.20
2022-11-20T05:03:34.295Z,17.30
2022-11-20T05:04:08.797Z,17.80
2022-11-20T05:04:42.010Z,17.30
2022-11-20T05:05:15.113Z,18.10
2022-11-20T05:05:48.451Z,17.20
2022-11-20T05:06:22.356Z,17.50
2022-11-20T05:06:55.869Z,17.40
2022-11-20T05:07:28.951Z,18.60
2022-11-20T05:08:02.099Z,18.10
2022-11-20T05:08:35.516Z,16.80
2022-11-20T05:09:08.739Z,16.50
2022-11-20T05:09:41.897Z,16.70
2022-11-20T05:10:15.346Z,17.30
2022-11-20T05:10:48.408Z,16.90
2022-11-20T05:11:22.104Z,17.00
2022-11-20T05:11:55.255Z,16.40
2022-11-20T05:12:29.965Z,18.40
2022-11-20T05:13:03.213Z,17.70
2022-11-20T05:13:36.339Z,17.80
2022-11-20T05:14:09.436Z,18.30
2022-11-20T05:14:42.547Z,17.80
2022-11-20T05:15:15.831Z,19.50
2022-11-20T05:15:49.271Z,19.20
2022-11-20T05:16:24.195Z,18.90
2022-11-20T05:16:57.474Z,17.40
2022-11-20T05:17:30.598Z,16.70
2022-11-20T05:18:03.849Z,19.30
2022-11-20T05:18:38.610Z,18.30
2022-11-20T05:19:12.176Z,18.10
2022-11-20T05:19:48.328Z,17.60
2022-11-20T05:20:23.682Z,18.90
2022-11-20T05:20:57.858Z,18.30
2022-11-20T05:21:32.832Z,19.00
2022-11-20T05:22:06.636Z,19.20
2022-11-20T05:22:39.995Z,18.70
2022-11-20T05:23:13.288Z,17.50
2022-11-20T05:23:47.388Z,17.10
2022-11-20T05:24:20.519Z,18.50
2022-11-20T05:24:53.533Z,17.30
2022-11-20T05:25:26.798Z,19.00
2022-11-20T05:26:00.477Z,19.10
2022-11-20T05:26:33.961Z,18.90
2022-11-20T05:27:07.323Z,18.90
2022-11-20T05:27:40.691Z,19.40
2022-11-20T05:28:14.061Z,19.30
2022-11-20T05:28:48.268Z,19.60
2022-11-20T05:29:21.723Z,20.00
2022-11-20T05:29:54.875Z,19.30
2022-11-20T05:30:28.191Z,19.90
2022-11-20T05:31:07.352Z,18.60
2022-11-20T05:31:41.683Z,20.60
2022-11-20T05:32:14.824Z,20.10
2022-11-20T05:32:47.889Z,19.90
2022-11-20T05:33:21.107Z,20.30
2022-11-20T05:33:54.969Z,21.30
2022-11-20T05:34:28.239Z,20.20
2022-11-20T05:35:01.324Z,21.70
2022-11-20T05:35:34.540Z,20.40
2022-11-20T05:36:08.163Z,22.30
2022-11-20T05:36:41.270Z,22.30
2022-11-20T05:37:14.538Z,21.30
2022-11-20T05:37:47.712Z,21.80
2022-11-20T05:38:20.962Z,22.90
2022-11-20T05:38:59.702Z,21.20
2022-11-20T05:39:34.626Z,20.30
2022-11-20T05:40:08.381Z,19.80
2022-11-20T05:40:41.712Z,20.60
2022-11-20T05:41:16.408Z,17.70
2022-11-20T05:42:09.460Z,17.00
2022-11-20T05:42:45.084Z,17.50
2022-11-20T05:43:18.327Z,17.90
2022-11-20T05:43:52.079Z,17.90
2022-11-20T05:44:25.158Z,18.00
2022-11-20T05:45:02.016Z,18.00
2022-11-20T05:45:35.317Z,18.70
2022-11-20T05:46:09.502Z,20.00
2022-11-20T05:46:42.860Z,18.70
2022-11-20T05:47:16.012Z,20.40
2022-11-20T05:47:49.162Z,18.90
2022-11-20T05:48:22.700Z,20.50
2022-11-20T05:48:56.437Z,20.80
2022-11-20T05:49:29.687Z,22.70
2022-11-20T05:50:02.959Z,21.00
2022-11-20T05:50:36.639Z,21.80
2022-11-20T05:51:10.909Z,21.40
2022-11-20T05:51:43.996Z,21.50
2022-11-20T05:52:17.188Z,21.90
2022-11-20T05:52:50.442Z,22.70
2022-11-20T05:53:26.365Z,26.40
2022-11-20T05:54:00.900Z,31.90
2022-11-20T05:54:34.065Z,30.20
2022-11-20T05:55:07.803Z,32.60
2022-11-20T05:55:41.052Z,34.80
2022-11-20T05:56:15.637Z,35.90
2022-11-20T05:56:48.663Z,31.00
2022-11-20T05:57:21.808Z,30.40
2022-11-20T05:57:56.275Z,29.00
2022-11-20T05:58:29.835Z,30.40
2022-11-20T05:59:02.913Z,28.30
2022-11-20T05:59:36.128Z,27.70
2022-11-20T06:00:09.516Z,25.70
2022-11-20T06:00:42.759Z,28.20
2022-11-20T06:01:15.780Z,26.80
2022-11-20T06:01:49.037Z,28.20
2022-11-20T06:02:22.430Z,27.70
2022-11-20T06:02:55.792Z,26.80
2022-11-20T06:03:28.903Z,27.40
2022-11-20T06:04:02.101Z,27.80
2022-11-20T06:04:35.371Z,29.60
2022-11-20T06:05:09.020Z,29.80
2022-11-20T06:05:42.289Z,29.30
2022-11-20T06:06:16.191Z,31.10
2022-11-20T06:06:49.559Z,29.10
2022-11-20T06:07:23.173Z,31.40
2022-11-20T06:07:56.218Z,30.00
2022-11-20T06:08:29.442Z,30.10
2022-11-20T06:09:02.565Z,27.70
2022-11-20T06:09:35.668Z,28.00
2022-11-20T06:10:08.933Z,25.30
2022-11-20T06:10:42.125Z,26.60
2022-11-20T06:11:15.761Z,25.90
2022-11-20T06:11:48.959Z,25.00
2022-11-20T06:12:22.271Z,24.20
2022-11-20T06:12:58.365Z,24.10
2022-11-20T06:13:31.414Z,25.00
2022-11-20T06:14:04.724Z,24.40
2022-11-20T06:14:37.893Z,27.00
2022-11-20T06:15:11.354Z,27.50
2022-11-20T06:15:49.498Z,27.10
2022-11-20T06:16:23.079Z,25.80
2022-11-20T06:16:56.223Z,23.40
2022-11-20T06:17:29.467Z,23.00
2022-11-20T06:18:02.736Z,21.40
2022-11-20T06:18:35.956Z,20.40
2022-11-20T06:19:09.994Z,22.40
2022-11-20T06:19:43.754Z,24.00
2022-11-20T06:20:16.882Z,25.20
2022-11-20T06:20:50.004Z,24.20
2022-11-20T06:21:23.798Z,26.00
2022-11-20T06:21:56.934Z,25.00
2022-11-20T06:22:30.099Z,26.00
2022-11-20T06:23:03.161Z,26.10
2022-11-20T06:23:36.877Z,26.70
2022-11-20T06:24:13.157Z,28.40
2022-11-20T06:24:46.186Z,27.30
2022-11-20T06:25:19.177Z,26.00
2022-11-20T06:25:52.213Z,25.90
2022-11-20T06:26:26.567Z,25.50
2022-11-20T06:26:59.691Z,26.30
2022-11-20T06:27:32.824Z,25.80
2022-11-20T06:28:06.081Z,25.60
2022-11-20T06:28:39.531Z,25.90
2022-11-20T06:29:13.146Z,25.30
2022-11-20T06:29:46.160Z,26.00
2022-11-20T06:30:19.328Z,26.70
2022-11-20T06:30:52.429Z,26.00
2022-11-20T06:31:26.341Z,25.70
2022-11-20T06:31:59.382Z,27.90
2022-11-20T06:32:32.652Z,27.30
2022-11-20T06:33:05.787Z,27.70
2022-11-20T06:33:38.835Z,30.50
2022-11-20T06:34:11.955Z,27.40
2022-11-20T06:34:44.938Z,27.40
2022-11-20T06:35:17.982Z,27.90
2022-11-20T06:35:55.496Z,28.70
2022-11-20T06:36:31.618Z,27.70
2022-11-20T06:37:04.941Z,29.80
2022-11-20T06:37:38.134Z,27.60
2022-11-20T06:38:11.259Z,29.30
2022-11-20T06:38:44.684Z,29.90
2022-11-20T06:39:17.744Z,27.90
2022-11-20T06:39:50.719Z,28.30
2022-11-20T06:40:23.889Z,27.80
2022-11-20T06:40:57.514Z,28.10
2022-11-20T06:41:30.892Z,26.30
2022-11-20T06:42:04.124Z,26.50
2022-11-20T06:42:37.202Z,26.80
2022-11-20T06:43:13.120Z,27.20
2022-11-20T06:43:46.451Z,26.90
2022-11-20T06:44:19.694Z,24.50
2022-11-20T06:44:53.007Z,26.90
2022-11-20T06:45:26.244Z,26.70
2022-11-20T06:45:59.841Z,27.60
2022-11-20T06:46:33.398Z,28.00
2022-11-20T06:47:06.521Z,27.00
2022-11-20T06:47:39.647Z,28.50
2022-11-20T06:48:12.780Z,28.20
2022-11-20T06:48:46.407Z,26.80
2022-11-20T06:49:19.795Z,25.60
2022-11-20T06:49:53.157Z,27.10
2022-11-20T06:50:26.603Z,27.60
2022-11-20T06:51:00.246Z,26.30
2022-11-20T06:51:33.384Z,26.70
2022-11-20T06:52:06.598Z,28.00
2022-11-20T06:52:43.636Z,26.70
2022-11-20T06:53:17.214Z,28.50
2022-11-20T06:53:50.442Z,27.90
2022-11-20T06:54:23.456Z,27.20
2022-11-20T06:54:56.598Z,27.00
2022-11-20T06:55:29.858Z,25.50
2022-11-20T06:56:03.629Z,26.20
2022-11-20T06:56:36.755Z,25.20
2022-11-20T06:57:09.876Z,25.00
2022-11-20T06:57:42.961Z,24.10
2022-11-20T06:58:16.827Z,24.80
2022-11-20T06:58:49.982Z,26.40
2022-11-20T06:59:23.344Z,26.80
2022-11-20T06:59:56.764Z,27.20
2022-11-20T07:00:29.927Z,25.60
2022-11-20T07:01:07.637Z,26.30
2022-11-20T07:01:40.775Z,29.80
2022-11-20T07:02:13.879Z,30.40
2022-11-20T07:02:47.102Z,31.30
2022-11-20T07:03:20.337Z,34.60
2022-11-20T07:03:54.629Z,37.00
2022-11-20T07:04:28.254Z,41.00
2022-11-20T07:05:01.401Z,44.00
2022-11-20T07:05:34.911Z,44.70
2022-11-20T07:06:08.422Z,47.30
2022-11-20T07:06:41.644Z,58.30
2022-11-20T07:07:14.789Z,50.30
2022-11-20T07:07:47.892Z,51.80
2022-11-20T07:08:20.976Z,52.10
2022-11-20T07:08:54.028Z,52.30
2022-11-20T07:09:27.591Z,53.40
2022-11-20T07:10:00.941Z,50.40
2022-11-20T07:10:34.302Z,48.70
2022-11-20T07:11:08.149Z,48.90
2022-11-20T07:11:41.280Z,52.40
2022-11-20T07:12:14.338Z,52.90
2022-11-20T07:12:50.838Z,50.50
2022-11-20T07:13:23.956Z,54.90
2022-11-20T07:13:58.186Z,66.60
2022-11-20T07:14:31.339Z,60.80
2022-11-20T07:15:04.718Z,55.70
2022-11-20T07:15:37.852Z,55.90
2022-11-20T07:16:10.974Z,57.40
2022-11-20T07:16:44.116Z,55.60
2022-11-20T07:17:17.221Z,53.90
2022-11-20T07:17:50.486Z,59.20
2022-11-20T07:18:23.752Z,56.70
2022-11-20T07:18:57.368Z,53.60
2022-11-20T07:19:31.615Z,53.70